createdAt,value
2019-05-10T00:00:35.532Z,20.30
2019-05-10T00:01:35.592Z,20.21
2019-05-10T00:02:35.639Z,20.24
2019-05-10T00:03:35.675Z,20.28
2019-05-10T00:04:35.729Z,20.23
2019-05-10T00:05:35.776Z,20.18
2019-05-10T00:06:35.796Z,20.27
2019-05-10T00:07:35.866Z,20.24
2019-05-10T00:08:35.911Z,20.21
2019-05-10T00:09:35.998Z,20.27
2019-05-10T00:10:35.977Z,20.24
2019-05-10T00:11:36.034Z,20.20
2019-05-10T00:12:36.092Z,20.24
2019-05-10T00:13:36.179Z,20.23
2019-05-10T00:14:36.201Z,20.18
2019-05-10T00:15:36.202Z,20.09
2019-05-10T00:16:36.245Z,20.12
2019-05-10T00:17:36.277Z,20.25
2019-05-10T00:18:36.351Z,20.16
2019-05-10T00:19:36.359Z,20.18
2019-05-10T00:20:36.432Z,20.13
2019-05-10T00:21:36.471Z,20.12
2019-05-10T00:22:36.518Z,20.16
2019-05-10T00:23:36.568Z,20.10
2019-05-10T00:24:36.658Z,20.10
2019-05-10T00:25:36.687Z,20.12
2019-05-10T00:26:36.684Z,20.15
2019-05-10T00:27:36.772Z,20.15
2019-05-10T00:28:36.841Z,20.13
2019-05-10T00:29:36.835Z,20.13
2019-05-10T00:30:36.910Z,20.03
2019-05-10T00:31:36.951Z,19.97
2019-05-10T00:32:37.000Z,20.13
2019-05-10T00:33:36.991Z,20.06
2019-05-10T00:34:37.031Z,20.10
2019-05-10T00:35:37.072Z,20.08
2019-05-10T00:36:37.117Z,20.03
2019-05-10T00:37:37.171Z,19.97
2019-05-10T00:38:37.236Z,20.02
2019-05-10T00:39:37.358Z,20.00
2019-05-10T00:40:37.280Z,20.06
2019-05-10T00:41:37.339Z,20.10
2019-05-10T00:42:37.410Z,20.05
2019-05-10T00:43:37.442Z,20.06
2019-05-10T00:44:37.473Z,20.02
2019-05-10T00:45:37.533Z,19.97
2019-05-10T00:46:37.582Z,19.98
2019-05-10T00:47:37.652Z,20.05
2019-05-10T00:48:37.662Z,20.02
2019-05-10T00:49:37.737Z,20.03
2019-05-10T00:50:37.780Z,19.93
2019-05-10T00:51:37.791Z,19.95
2019-05-10T00:52:37.813Z,19.94
2019-05-10T00:53:37.858Z,19.98
2019-05-10T00:54:37.967Z,19.98
2019-05-10T00:55:37.966Z,19.98
2019-05-10T00:56:38.048Z,19.98
2019-05-10T00:57:38.094Z,20.03
2019-05-10T00:58:38.078Z,20.00
2019-05-10T00:59:38.208Z,20.00
2019-05-10T01:00:38.161Z,20.05
2019-05-10T01:01:38.207Z,19.95
2019-05-10T01:02:38.243Z,19.93
2019-05-10T01:03:38.307Z,19.94
2019-05-10T01:04:38.330Z,19.90
2019-05-10T01:05:38.392Z,19.90
2019-05-10T01:06:38.436Z,19.91
2019-05-10T01:07:38.480Z,19.95
2019-05-10T01:08:38.523Z,19.90
2019-05-10T01:09:38.606Z,19.95
2019-05-10T01:10:38.647Z,19.88
2019-05-10T01:11:38.654Z,19.97
2019-05-10T01:12:38.707Z,19.88
2019-05-10T01:13:38.777Z,19.86
2019-05-10T01:14:38.828Z,19.90
2019-05-10T01:15:38.807Z,19.84
2019-05-10T01:16:38.854Z,19.87
2019-05-10T01:17:38.891Z,19.88
2019-05-10T01:18:38.957Z,19.86
2019-05-10T01:19:38.996Z,19.87
2019-05-10T01:20:39.019Z,19.78
2019-05-10T01:21:39.099Z,19.80
2019-05-10T01:22:39.175Z,19.84
2019-05-10T01:23:39.174Z,19.76
2019-05-10T01:24:39.206Z,19.84
2019-05-10T01:25:39.267Z,19.80
2019-05-10T01:26:39.290Z,19.86
2019-05-10T01:27:39.347Z,19.83
2019-05-10T01:28:39.390Z,19.84
2019-05-10T01:29:39.423Z,19.78
2019-05-10T01:30:39.472Z,19.83
2019-05-10T01:31:39.516Z,19.84
2019-05-10T01:32:39.612Z,19.86
2019-05-10T01:33:39.604Z,19.83
2019-05-10T01:34:39.665Z,19.80
2019-05-10T01:35:39.693Z,19.72
2019-05-10T01:36:39.758Z,19.75
2019-05-10T01:37:39.783Z,19.72
2019-05-10T01:38:39.806Z,19.69
2019-05-10T01:39:39.862Z,19.70
2019-05-10T01:40:39.910Z,19.68
2019-05-10T01:41:39.958Z,19.69
2019-05-10T01:42:40.034Z,19.63
2019-05-10T01:43:40.040Z,19.63
2019-05-10T01:44:40.085Z,19.66
2019-05-10T01:45:40.158Z,19.68
2019-05-10T01:46:40.167Z,19.63
2019-05-10T01:47:40.222Z,19.61
2019-05-10T01:48:40.277Z,19.57
2019-05-10T01:49:40.365Z,19.54
2019-05-10T01:50:40.348Z,19.51
2019-05-10T01:51:40.371Z,19.60
2019-05-10T01:52:40.422Z,19.60
2019-05-10T01:53:40.480Z,19.55
2019-05-10T01:54:40.518Z,19.53
2019-05-10T01:55:51.360Z,19.54
2019-05-10T01:56:40.618Z,19.58
2019-05-10T01:57:40.656Z,19.58
2019-05-10T01:58:40.686Z,19.57
2019-05-10T01:59:40.726Z,19.55
2019-05-10T02:00:40.785Z,19.60
2019-05-10T02:01:40.848Z,19.58
2019-05-10T02:02:40.853Z,19.61
2019-05-10T02:03:40.911Z,19.54
2019-05-10T02:04:40.937Z,19.54
2019-05-10T02:05:40.997Z,19.57
2019-05-10T02:06:41.040Z,19.55
2019-05-10T02:07:41.099Z,19.53
2019-05-10T02:08:41.131Z,19.60
2019-05-10T02:09:41.180Z,19.60
2019-05-10T02:10:41.206Z,19.60
2019-05-10T02:11:41.253Z,19.58
2019-05-10T02:12:41.294Z,19.60
2019-05-10T02:13:41.340Z,19.57
2019-05-10T02:14:41.387Z,19.57
2019-05-10T02:15:41.432Z,19.55
2019-05-10T02:16:41.470Z,19.42
2019-05-10T02:17:41.524Z,19.54
2019-05-10T02:18:41.571Z,19.51
2019-05-10T02:19:41.603Z,19.48
2019-05-10T02:20:41.641Z,19.50
2019-05-10T02:21:41.666Z,19.48
2019-05-10T02:22:41.737Z,19.43
2019-05-10T02:23:41.780Z,19.43
2019-05-10T02:24:41.821Z,19.46
2019-05-10T02:25:41.869Z,19.50
2019-05-10T02:26:41.895Z,19.40
2019-05-10T02:27:41.932Z,19.46
2019-05-10T02:28:42.007Z,19.46
2019-05-10T02:29:42.018Z,19.36
2019-05-10T02:30:42.070Z,19.50
2019-05-10T02:31:42.164Z,19.42
2019-05-10T02:32:42.178Z,19.42
2019-05-10T02:33:42.197Z,19.38
2019-05-10T02:34:42.240Z,19.39
2019-05-10T02:35:42.291Z,19.25
2019-05-10T02:36:42.444Z,19.28
2019-05-10T02:37:42.380Z,19.38
2019-05-10T02:38:42.409Z,19.38
2019-05-10T02:39:42.458Z,19.35
2019-05-10T02:40:42.502Z,19.42
2019-05-10T02:41:42.557Z,19.40
2019-05-10T02:42:42.579Z,19.40
2019-05-10T02:43:42.641Z,19.46
2019-05-10T02:44:42.695Z,19.29
2019-05-10T02:45:42.724Z,19.31
2019-05-10T02:46:42.768Z,19.35
2019-05-10T02:47:42.810Z,19.31
2019-05-10T02:48:42.840Z,19.38
2019-05-10T02:49:42.897Z,19.38
2019-05-10T02:50:42.929Z,19.38
2019-05-10T02:51:42.981Z,19.36
2019-05-10T02:52:43.009Z,19.46
2019-05-10T02:53:43.063Z,19.40
2019-05-10T02:54:43.133Z,19.38
2019-05-10T02:55:43.149Z,19.42
2019-05-10T02:56:43.192Z,19.46
2019-05-10T02:57:43.274Z,19.46
2019-05-10T02:58:43.287Z,19.50
2019-05-10T02:59:43.339Z,19.47
2019-05-10T03:00:43.371Z,19.50
2019-05-10T03:01:43.403Z,19.54
2019-05-10T03:02:43.473Z,19.51
2019-05-10T03:03:43.500Z,19.50
2019-05-10T03:04:43.574Z,19.47
2019-05-10T03:05:48.125Z,19.47
2019-05-10T03:06:43.624Z,19.39
2019-05-10T03:07:43.678Z,19.47
2019-05-10T03:08:43.748Z,19.42
2019-05-10T03:09:43.779Z,19.47
2019-05-10T03:10:43.800Z,19.46
2019-05-10T03:11:43.849Z,19.38
2019-05-10T03:12:43.868Z,19.36
2019-05-10T03:13:43.894Z,19.43
2019-05-10T03:14:43.979Z,19.39
2019-05-10T03:15:43.986Z,19.36
2019-05-10T03:16:44.054Z,19.40
2019-05-10T03:17:44.098Z,19.36
2019-05-10T03:18:44.148Z,19.35
2019-05-10T03:19:44.160Z,19.33
2019-05-10T03:20:44.223Z,19.46
2019-05-10T03:21:44.317Z,19.39
2019-05-10T03:22:44.352Z,19.36
2019-05-10T03:23:44.366Z,19.35
2019-05-10T03:24:44.416Z,19.31
2019-05-10T03:25:44.486Z,19.40
2019-05-10T03:26:51.108Z,19.38
2019-05-10T03:27:44.527Z,19.43
2019-05-10T03:28:44.576Z,19.46
2019-05-10T03:29:44.614Z,19.46
2019-05-10T03:30:44.642Z,19.38
2019-05-10T03:31:44.696Z,19.39
2019-05-10T03:32:44.763Z,19.47
2019-05-10T03:33:44.800Z,19.46
2019-05-10T03:34:44.876Z,19.46
2019-05-10T03:35:44.873Z,19.42
2019-05-10T03:36:44.939Z,19.40
2019-05-10T03:37:44.970Z,19.48
2019-05-10T03:38:45.003Z,19.48
2019-05-10T03:39:45.036Z,19.48
2019-05-10T03:40:45.091Z,19.55
2019-05-10T03:41:45.128Z,19.47
2019-05-10T03:42:45.171Z,19.57
2019-05-10T03:43:45.237Z,19.53
2019-05-10T03:44:45.288Z,19.55
2019-05-10T03:45:45.301Z,19.50
2019-05-10T03:46:45.355Z,19.55
2019-05-10T03:47:45.398Z,19.60
2019-05-10T03:48:45.502Z,19.63
2019-05-10T03:49:45.497Z,19.57
2019-05-10T03:50:45.544Z,19.66
2019-05-10T03:51:45.572Z,19.61
2019-05-10T03:52:45.689Z,19.58
2019-05-10T03:53:45.680Z,19.69
2019-05-10T03:54:45.698Z,19.70
2019-05-10T03:55:45.722Z,19.68
2019-05-10T03:56:45.788Z,19.63
2019-05-10T03:57:45.825Z,19.70
2019-05-10T03:58:45.841Z,19.60
2019-05-10T03:59:45.925Z,19.65
2019-05-10T04:00:45.970Z,19.65
2019-05-10T04:01:46.047Z,19.65
2019-05-10T04:02:46.053Z,19.66
2019-05-10T04:03:46.099Z,19.57
2019-05-10T04:04:46.186Z,19.58
2019-05-10T04:05:46.218Z,19.47
2019-05-10T04:06:46.265Z,19.42
2019-05-10T04:07:46.246Z,19.46
2019-05-10T04:08:46.334Z,19.46
2019-05-10T04:09:46.430Z,19.42
2019-05-10T04:10:46.505Z,19.47
2019-05-10T04:11:46.541Z,19.46
2019-05-10T04:12:46.579Z,19.38
2019-05-10T04:13:46.516Z,19.36
2019-05-10T04:14:46.600Z,19.46
2019-05-10T04:15:46.668Z,19.42
2019-05-10T04:16:46.694Z,19.46
2019-05-10T04:17:50.200Z,19.40
2019-05-10T04:18:46.742Z,19.42
2019-05-10T04:19:46.864Z,19.38
2019-05-10T04:20:46.829Z,19.39
2019-05-10T04:21:46.852Z,19.38
2019-05-10T04:22:46.911Z,19.39
2019-05-10T04:23:47.110Z,19.35
2019-05-10T04:24:47.054Z,19.39
2019-05-10T04:25:47.100Z,19.42
2019-05-10T04:26:47.069Z,19.31
2019-05-10T04:27:47.172Z,19.39
2019-05-10T04:28:47.328Z,19.31
2019-05-10T04:29:47.249Z,19.46
2019-05-10T04:30:47.326Z,19.35
2019-05-10T04:31:47.348Z,19.32
2019-05-10T04:32:47.380Z,19.31
2019-05-10T04:33:47.425Z,19.29
2019-05-10T04:34:47.588Z,19.31
2019-05-10T04:35:47.507Z,19.24
2019-05-10T04:36:47.554Z,19.28
2019-05-10T04:37:47.619Z,19.36
2019-05-10T04:38:47.598Z,19.35
2019-05-10T04:39:47.790Z,19.28
2019-05-10T04:40:47.719Z,19.32
2019-05-10T04:41:47.754Z,19.32
2019-05-10T04:42:47.787Z,19.31
2019-05-10T04:43:47.859Z,19.24
2019-05-10T04:44:52.591Z,19.28
2019-05-10T04:45:48.002Z,19.25
2019-05-10T04:46:47.961Z,19.29
2019-05-10T04:47:47.984Z,19.23
2019-05-10T04:48:48.071Z,19.29
2019-05-10T04:49:48.128Z,19.25
2019-05-10T04:50:49.377Z,19.23
2019-05-10T04:51:48.153Z,19.23
2019-05-10T04:52:48.205Z,19.23
2019-05-10T04:53:48.243Z,19.17
2019-05-10T04:54:48.279Z,19.18
2019-05-10T04:55:48.324Z,19.15
2019-05-10T04:56:48.372Z,19.24
2019-05-10T04:57:51.025Z,19.20
2019-05-10T04:58:48.432Z,19.20
2019-05-10T04:59:48.484Z,19.20
2019-05-10T05:00:48.525Z,19.17
2019-05-10T05:01:48.582Z,19.17
2019-05-10T05:02:48.661Z,19.14
2019-05-10T05:03:48.667Z,19.23
2019-05-10T05:04:48.726Z,19.15
2019-05-10T05:05:48.748Z,19.21
2019-05-10T05:06:48.954Z,19.13
2019-05-10T05:07:48.838Z,19.14
2019-05-10T05:08:48.886Z,19.17
2019-05-10T05:09:48.938Z,19.17
2019-05-10T05:10:49.020Z,19.21
2019-05-10T05:11:49.011Z,19.24
2019-05-10T05:12:49.069Z,19.21
2019-05-10T05:13:49.108Z,19.15
2019-05-10T05:14:49.142Z,19.14
2019-05-10T05:15:49.192Z,19.17
2019-05-10T05:16:49.222Z,19.15
2019-05-10T05:17:49.245Z,19.17
2019-05-10T05:18:49.447Z,19.21
2019-05-10T05:19:49.412Z,19.20
2019-05-10T05:20:49.396Z,19.08
2019-05-10T05:21:49.441Z,19.14
2019-05-10T05:22:49.495Z,19.05
2019-05-10T05:23:49.534Z,19.08
2019-05-10T05:24:49.806Z,19.02
2019-05-10T05:25:49.661Z,19.02
2019-05-10T05:26:49.640Z,19.08
2019-05-10T05:28:06.121Z,19.08
2019-05-10T05:28:49.775Z,19.01
2019-05-10T05:29:49.767Z,19.06
2019-05-10T05:30:49.817Z,19.05
2019-05-10T05:31:53.921Z,19.10
2019-05-10T05:32:49.906Z,19.06
2019-05-10T05:33:49.945Z,19.02
2019-05-10T05:34:50.008Z,19.05
2019-05-10T05:35:50.040Z,19.08
2019-05-10T05:36:50.110Z,19.08
2019-05-10T05:37:50.103Z,19.06
2019-05-10T05:38:50.176Z,19.18
2019-05-10T05:39:50.213Z,19.15
2019-05-10T05:40:50.273Z,19.11
2019-05-10T05:41:52.204Z,19.17
2019-05-10T05:42:50.331Z,19.20
2019-05-10T05:43:50.362Z,19.17
2019-05-10T05:44:50.425Z,19.17
2019-05-10T05:45:50.456Z,19.18
2019-05-10T05:46:50.557Z,19.18
2019-05-10T05:47:50.538Z,19.18
2019-05-10T05:48:51.585Z,19.18
2019-05-10T05:49:50.631Z,19.11
2019-05-10T05:50:50.691Z,19.20
2019-05-10T05:51:50.738Z,19.15
2019-05-10T05:52:50.812Z,19.18
2019-05-10T05:53:50.847Z,19.18
2019-05-10T05:54:52.920Z,19.20
2019-05-10T05:55:50.913Z,19.15
2019-05-10T05:56:52.955Z,19.18
2019-05-10T05:57:50.991Z,19.21
2019-05-10T05:58:51.015Z,19.14
2019-05-10T05:59:51.070Z,19.21
2019-05-10T06:00:51.147Z,19.13
2019-05-10T06:01:51.190Z,19.17
2019-05-10T06:02:51.186Z,19.14
2019-05-10T06:03:51.259Z,19.18
2019-05-10T06:04:51.298Z,19.13
2019-05-10T06:05:51.331Z,19.18
2019-05-10T06:06:53.879Z,19.13
2019-05-10T06:07:52.409Z,19.13
2019-05-10T06:08:54.440Z,19.13
2019-05-10T06:09:51.536Z,19.08
2019-05-10T06:10:58.190Z,19.11
2019-05-10T06:11:51.601Z,19.20
2019-05-10T06:12:52.978Z,19.14
2019-05-10T06:13:51.713Z,19.14
2019-05-10T06:14:52.336Z,19.10
2019-05-10T06:15:51.810Z,19.15
2019-05-10T06:16:53.089Z,19.15
2019-05-10T06:17:57.371Z,19.18
2019-05-10T06:18:51.874Z,19.10
2019-05-10T06:19:51.927Z,19.02
2019-05-10T06:20:51.963Z,19.14
2019-05-10T06:21:57.984Z,19.10
2019-05-10T06:23:06.032Z,19.18
2019-05-10T06:23:52.138Z,19.15
2019-05-10T06:24:53.760Z,19.17
2019-05-10T06:25:52.212Z,19.08
2019-05-10T06:26:52.241Z,19.06
2019-05-10T06:27:52.276Z,19.11
2019-05-10T06:28:59.675Z,19.11
2019-05-10T06:29:52.346Z,19.06
2019-05-10T06:30:52.382Z,19.08
2019-05-10T06:31:52.453Z,19.17
2019-05-10T06:32:53.456Z,19.11
2019-05-10T06:33:52.513Z,19.17
2019-05-10T06:34:52.576Z,19.13
2019-05-10T06:35:52.601Z,19.10
2019-05-10T06:36:52.644Z,19.01
2019-05-10T06:37:52.707Z,19.11
2019-05-10T06:38:52.719Z,19.10
2019-05-10T06:39:52.777Z,18.95
2019-05-10T06:40:52.881Z,19.13
2019-05-10T06:41:56.163Z,18.98
2019-05-10T06:42:52.910Z,18.97
2019-05-10T06:43:53.168Z,18.95
2019-05-10T06:44:52.989Z,18.91
2019-05-10T06:45:53.973Z,18.97
2019-05-10T06:46:53.068Z,18.91
2019-05-10T06:47:53.593Z,18.92
2019-05-10T06:48:53.158Z,18.91
2019-05-10T06:49:53.254Z,18.86
2019-05-10T06:50:53.255Z,18.94
2019-05-10T06:51:53.273Z,18.94
2019-05-10T06:52:53.348Z,18.92
2019-05-10T06:53:53.959Z,18.97
2019-05-10T06:54:53.404Z,18.90
2019-05-10T06:55:53.455Z,18.92
2019-05-10T06:56:53.496Z,18.90
2019-05-10T06:57:58.945Z,18.92
2019-05-10T06:58:53.565Z,18.92
2019-05-10T07:00:00.338Z,18.95
2019-05-10T07:00:53.679Z,18.91
2019-05-10T07:01:53.734Z,18.87
2019-05-10T07:02:53.760Z,18.94
2019-05-10T07:03:53.807Z,18.90
2019-05-10T07:04:53.863Z,18.91
2019-05-10T07:05:53.892Z,18.90
2019-05-10T07:06:53.973Z,18.80
2019-05-10T07:07:59.075Z,18.82
2019-05-10T07:08:57.810Z,18.79
2019-05-10T07:10:12.291Z,18.87
2019-05-10T07:10:54.108Z,18.79
2019-05-10T07:11:54.146Z,18.77
2019-05-10T07:12:57.183Z,18.91
2019-05-10T07:13:54.233Z,18.87
2019-05-10T07:14:57.942Z,18.77
2019-05-10T07:15:54.311Z,18.76
2019-05-10T07:16:56.612Z,18.86
2019-05-10T07:17:54.413Z,18.87
2019-05-10T07:18:59.876Z,18.92
2019-05-10T07:19:55.355Z,18.86
2019-05-10T07:20:54.564Z,18.90
2019-05-10T07:21:54.582Z,18.92
2019-05-10T07:22:54.615Z,18.90
2019-05-10T07:23:54.671Z,18.92
2019-05-10T07:24:57.322Z,18.97
2019-05-10T07:25:54.747Z,18.92
2019-05-10T07:26:56.655Z,18.97
2019-05-10T07:27:54.817Z,18.97
2019-05-10T07:28:57.538Z,18.98
2019-05-10T07:29:54.919Z,18.97
2019-05-10T07:30:54.943Z,18.92
2019-05-10T07:31:54.984Z,19.10
2019-05-10T07:32:59.670Z,18.97
2019-05-10T07:33:55.100Z,18.99
2019-05-10T07:34:58.659Z,19.01
2019-05-10T07:35:55.186Z,18.98
2019-05-10T07:36:55.353Z,18.98
2019-05-10T07:37:55.252Z,19.02
2019-05-10T07:38:55.317Z,19.05
2019-05-10T07:39:55.332Z,19.08
2019-05-10T07:40:55.399Z,18.94
2019-05-10T07:42:00.481Z,19.01
2019-05-10T07:42:55.476Z,19.06
2019-05-10T07:44:00.710Z,19.08
2019-05-10T07:44:55.540Z,19.11
2019-05-10T07:45:58.642Z,19.05
2019-05-10T07:46:58.466Z,19.10
2019-05-10T07:47:55.719Z,19.06
2019-05-10T07:48:55.715Z,19.10
2019-05-10T07:49:55.779Z,19.01
2019-05-10T07:50:55.814Z,19.08
2019-05-10T07:52:02.120Z,19.02
2019-05-10T07:52:55.882Z,19.06
2019-05-10T07:53:57.000Z,19.05
2019-05-10T07:54:55.976Z,18.99
2019-05-10T07:55:59.847Z,18.97
2019-05-10T07:56:56.089Z,18.95
2019-05-10T07:57:59.000Z,18.95
2019-05-10T07:58:56.169Z,18.91
2019-05-10T08:00:02.798Z,18.92
2019-05-10T08:00:56.482Z,18.87
2019-05-10T08:01:56.292Z,18.90
2019-05-10T08:03:07.574Z,18.90
2019-05-10T08:03:56.386Z,18.91
2019-05-10T08:04:58.444Z,18.92
2019-05-10T08:06:01.326Z,18.94
2019-05-10T08:06:56.504Z,18.97
2019-05-10T08:07:58.596Z,18.97
2019-05-10T08:09:01.913Z,19.05
2019-05-10T08:09:56.622Z,18.98
2019-05-10T08:10:56.667Z,18.95
2019-05-10T08:12:03.290Z,19.01
2019-05-10T08:12:59.071Z,19.05
2019-05-10T08:13:57.795Z,18.99
2019-05-10T08:14:58.929Z,18.97
2019-05-10T08:15:59.303Z,18.99
2019-05-10T08:17:02.691Z,19.02
2019-05-10T08:17:58.512Z,19.05
2019-05-10T08:19:00.939Z,19.02
2019-05-10T08:19:57.056Z,19.05
2019-05-10T08:21:02.183Z,19.10
2019-05-10T08:22:01.749Z,19.02
2019-05-10T08:22:57.199Z,19.06
2019-05-10T08:23:58.987Z,19.10
2019-05-10T08:24:57.279Z,19.08
2019-05-10T08:25:57.324Z,19.05
2019-05-10T08:27:09.582Z,19.05
2019-05-10T08:27:57.440Z,19.14
2019-05-10T08:28:57.452Z,19.08
2019-05-10T08:30:17.962Z,19.08
2019-05-10T08:30:59.029Z,19.08
2019-05-10T08:31:57.567Z,18.99
2019-05-10T08:33:00.147Z,19.02
2019-05-10T08:33:59.010Z,18.94
2019-05-10T08:34:57.710Z,18.94
2019-05-10T08:36:00.473Z,18.92
2019-05-10T08:36:57.806Z,18.87
2019-05-10T08:37:57.878Z,18.95
2019-05-10T08:39:07.050Z,18.90
2019-05-10T08:39:57.960Z,18.92
2019-05-10T08:40:57.943Z,19.01
2019-05-10T08:42:04.835Z,18.94
2019-05-10T08:43:04.897Z,18.97
2019-05-10T08:43:58.092Z,19.01
2019-05-10T08:45:03.787Z,18.97
2019-05-10T08:45:58.174Z,18.97
2019-05-10T08:46:58.212Z,18.94
2019-05-10T08:48:00.646Z,19.01
2019-05-10T08:48:58.299Z,18.99
2019-05-10T08:50:13.895Z,18.95
2019-05-10T08:51:05.548Z,19.01
2019-05-10T08:51:58.448Z,18.91
2019-05-10T08:53:04.291Z,18.95
2019-05-10T08:53:58.552Z,18.98
2019-05-10T08:54:58.564Z,18.98
2019-05-10T08:55:59.089Z,18.94
2019-05-10T08:57:01.264Z,18.95
2019-05-10T08:57:58.720Z,18.94
2019-05-10T08:58:58.719Z,18.90
2019-05-10T09:00:06.595Z,18.79
2019-05-10T09:01:15.289Z,18.84
2019-05-10T09:01:58.850Z,18.91
2019-05-10T09:03:00.914Z,18.77
2019-05-10T09:04:00.787Z,18.80
2019-05-10T09:04:58.988Z,18.82
2019-05-10T09:06:03.527Z,18.79
2019-05-10T09:06:59.959Z,18.79
2019-05-10T09:08:02.445Z,18.77
2019-05-10T09:09:05.907Z,18.74
2019-05-10T09:10:02.072Z,18.73
2019-05-10T09:10:59.265Z,18.72
2019-05-10T09:12:04.188Z,18.76
2019-05-10T09:12:59.328Z,18.76
2019-05-10T09:13:59.349Z,18.72
2019-05-10T09:15:06.494Z,18.79
2019-05-10T09:16:02.243Z,18.82
2019-05-10T09:17:03.506Z,18.72
2019-05-10T09:18:04.166Z,18.72
2019-05-10T09:18:59.567Z,18.79
2019-05-10T09:19:59.610Z,18.72
2019-05-10T09:21:08.188Z,18.79
2019-05-10T09:22:01.860Z,18.72
2019-05-10T09:23:02.205Z,18.74
2019-05-10T09:24:03.244Z,18.73
2019-05-10T09:25:01.770Z,18.74
2019-05-10T09:26:02.022Z,18.70
2019-05-10T09:27:01.881Z,18.70
2019-05-10T09:28:02.364Z,18.65
2019-05-10T09:29:01.662Z,18.70
2019-05-10T09:30:02.755Z,18.74
2019-05-10T09:31:15.258Z,18.76
2019-05-10T09:32:03.746Z,18.72
2019-05-10T09:33:01.040Z,18.67
2019-05-10T09:34:02.491Z,18.64
2019-05-10T09:35:07.498Z,18.72
2019-05-10T09:36:02.758Z,18.76
2019-05-10T09:37:02.786Z,18.67
2019-05-10T09:38:01.970Z,18.79
2019-05-10T09:39:03.224Z,18.70
2019-05-10T09:40:08.094Z,18.73
2019-05-10T09:41:02.470Z,18.72
2019-05-10T09:42:08.288Z,18.77
2019-05-10T09:43:07.491Z,18.72
2019-05-10T09:44:02.830Z,18.70
2019-05-10T09:45:03.075Z,18.77
2019-05-10T09:46:02.740Z,18.70
2019-05-10T09:47:01.897Z,18.70
2019-05-10T09:48:02.543Z,18.74
2019-05-10T09:49:13.709Z,18.72
2019-05-10T09:50:02.284Z,18.72
2019-05-10T09:51:03.919Z,18.79
2019-05-10T09:52:04.492Z,18.76
2019-05-10T09:53:01.029Z,18.82
2019-05-10T09:54:01.115Z,18.79
2019-05-10T09:55:04.121Z,18.79
2019-05-10T09:56:03.085Z,18.86
2019-05-10T09:57:01.216Z,18.80
2019-05-10T09:58:01.250Z,18.87
2019-05-10T09:59:01.312Z,18.97
2019-05-10T10:00:01.330Z,18.92
2019-05-10T10:01:13.807Z,18.95
2019-05-10T10:02:04.942Z,18.95
2019-05-10T10:03:01.914Z,18.87
2019-05-10T10:04:02.345Z,18.98
2019-05-10T10:05:01.555Z,18.94
2019-05-10T10:06:07.308Z,19.06
2019-05-10T10:07:01.671Z,19.02
2019-05-10T10:08:03.694Z,19.10
2019-05-10T10:09:01.724Z,19.05
2019-05-10T10:10:01.759Z,19.21
2019-05-10T10:11:14.056Z,19.14
2019-05-10T10:12:03.213Z,19.17
2019-05-10T10:13:08.420Z,19.15
2019-05-10T10:14:02.297Z,19.20
2019-05-10T10:15:01.963Z,19.17
2019-05-10T10:16:04.010Z,19.25
2019-05-10T10:17:03.168Z,19.33
2019-05-10T10:18:02.096Z,19.46
2019-05-10T10:19:02.134Z,19.38
2019-05-10T10:20:02.219Z,19.47
2019-05-10T10:21:02.227Z,19.43
2019-05-10T10:22:05.466Z,19.43
2019-05-10T10:23:02.319Z,19.46
2019-05-10T10:24:12.691Z,19.43
2019-05-10T10:25:02.395Z,19.51
2019-05-10T10:26:02.459Z,19.66
2019-05-10T10:27:02.520Z,19.69
2019-05-10T10:28:02.534Z,19.78
2019-05-10T10:29:02.586Z,19.93
2019-05-10T10:30:06.620Z,19.93
2019-05-10T10:31:05.284Z,19.98
2019-05-10T10:32:02.713Z,20.15
2019-05-10T10:33:05.705Z,20.20
2019-05-10T10:34:03.322Z,20.23
2019-05-10T10:35:02.852Z,20.23
2019-05-10T10:36:05.199Z,20.47
2019-05-10T10:37:02.922Z,20.54
2019-05-10T10:38:05.111Z,20.68
2019-05-10T10:39:03.020Z,20.72
2019-05-10T10:40:05.593Z,20.77
2019-05-10T10:41:03.097Z,20.68
2019-05-10T10:42:08.765Z,20.68
2019-05-10T10:43:03.202Z,20.72
2019-05-10T10:44:03.246Z,20.69
2019-05-10T10:45:03.305Z,20.68
2019-05-10T10:46:03.339Z,20.69
2019-05-10T10:47:03.370Z,20.56
2019-05-10T10:48:10.589Z,20.46
2019-05-10T10:49:05.536Z,20.33
2019-05-10T10:50:09.313Z,20.31
2019-05-10T10:51:03.558Z,20.38
2019-05-10T10:52:05.660Z,20.39
2019-05-10T10:53:03.688Z,20.46
2019-05-10T10:54:03.697Z,20.50
2019-05-10T10:55:05.576Z,20.68
2019-05-10T10:56:04.106Z,20.68
2019-05-10T10:57:03.812Z,20.81
2019-05-10T10:58:03.855Z,20.84
2019-05-10T10:59:03.928Z,20.90
2019-05-10T11:00:03.957Z,20.91
2019-05-10T11:01:10.897Z,20.80
2019-05-10T11:02:28.903Z,20.89
2019-05-10T11:03:04.097Z,20.93
2019-05-10T11:04:08.015Z,21.04
2019-05-10T11:05:04.174Z,21.06
2019-05-10T11:06:04.227Z,21.14
2019-05-10T11:07:10.268Z,21.17
2019-05-10T11:08:04.307Z,21.20
2019-05-10T11:09:04.398Z,21.20
2019-05-10T11:10:14.966Z,21.32
2019-05-10T11:11:04.437Z,21.41
2019-05-10T11:12:04.567Z,21.48
2019-05-10T11:13:11.014Z,21.64
2019-05-10T11:14:07.277Z,22.07
2019-05-10T11:15:04.640Z,22.37
2019-05-10T11:16:11.124Z,22.80
2019-05-10T11:17:04.722Z,22.99
2019-05-10T11:18:04.785Z,23.40
2019-05-10T11:19:13.235Z,23.83
2019-05-10T11:20:08.303Z,24.26
2019-05-10T11:21:04.901Z,24.53
2019-05-10T11:22:09.723Z,24.82
2019-05-10T11:23:05.009Z,24.88
2019-05-10T11:24:10.195Z,25.17
2019-05-10T11:25:09.400Z,24.85
2019-05-10T11:26:05.167Z,24.64
2019-05-10T11:27:07.178Z,24.64
2019-05-10T11:28:05.253Z,24.85
2019-05-10T11:29:05.304Z,24.98
2019-05-10T11:30:05.316Z,25.25
2019-05-10T11:31:05.391Z,25.35
2019-05-10T11:32:16.772Z,25.30
2019-05-10T11:33:05.488Z,25.56
2019-05-10T11:34:06.198Z,25.86
2019-05-10T11:35:05.709Z,26.11
2019-05-10T11:36:08.693Z,26.37
2019-05-10T11:37:05.679Z,26.74
2019-05-10T11:38:06.590Z,27.11
2019-05-10T11:39:06.119Z,27.35
2019-05-10T11:40:05.831Z,27.16
2019-05-10T11:41:07.012Z,27.19
2019-05-10T11:42:07.322Z,27.06
2019-05-10T11:43:05.959Z,27.17
2019-05-10T11:44:09.084Z,27.38
2019-05-10T11:45:06.097Z,27.46
2019-05-10T11:46:06.152Z,27.59
2019-05-10T11:47:22.501Z,27.66
2019-05-10T11:48:06.264Z,27.67
2019-05-10T11:49:06.300Z,27.79
2019-05-10T11:50:06.677Z,28.10
2019-05-10T11:51:12.358Z,28.38
2019-05-10T11:52:09.872Z,28.22
2019-05-10T11:53:13.317Z,28.13
2019-05-10T11:54:06.539Z,27.98
2019-05-10T11:55:06.603Z,27.54
2019-05-10T11:56:07.797Z,27.41
2019-05-10T11:57:10.904Z,27.58
2019-05-10T11:58:08.880Z,27.53
2019-05-10T11:59:06.804Z,27.53
2019-05-10T12:00:14.640Z,27.36
2019-05-10T12:01:16.408Z,27.13
2019-05-10T12:02:10.252Z,26.79
2019-05-10T12:05:15.903Z,26.17
2019-05-10T12:06:09.063Z,26.06
2019-05-10T12:07:09.809Z,26.32
2019-05-10T12:08:07.320Z,26.47
2019-05-10T12:09:07.319Z,26.72
2019-05-10T12:10:14.424Z,26.91
2019-05-10T12:11:21.089Z,27.16
2019-05-10T12:12:07.482Z,27.19
2019-05-10T12:13:15.895Z,27.24
2019-05-10T12:14:07.589Z,27.10
2019-05-10T12:15:07.647Z,27.05
2019-05-10T12:16:07.702Z,27.05
2019-05-10T12:17:07.748Z,26.86
2019-05-10T12:18:07.802Z,27.10
2019-05-10T12:19:16.980Z,27.11
2019-05-10T12:20:07.898Z,27.14
2019-05-10T12:21:09.614Z,27.21
2019-05-10T12:22:08.014Z,27.36
2019-05-10T12:23:13.426Z,27.41
2019-05-10T12:24:26.499Z,27.39
2019-05-10T12:25:34.842Z,27.32
2019-05-10T12:26:04.972Z,26.29
2019-05-10T12:26:16.032Z,26.54
2019-05-10T12:27:18.530Z,27.38
2019-05-10T12:28:08.351Z,27.54
2019-05-10T12:29:13.781Z,27.76
2019-05-10T12:30:08.434Z,27.91
2019-05-10T12:31:15.229Z,27.94
2019-05-10T12:32:10.377Z,28.26
2019-05-10T12:33:12.427Z,28.21
2019-05-10T12:34:12.811Z,28.17
2019-05-10T12:35:08.698Z,28.23
2019-05-10T12:36:13.022Z,28.32
2019-05-10T12:37:08.773Z,28.23
2019-05-10T12:38:11.202Z,27.82
2019-05-10T12:39:11.390Z,27.51
2019-05-10T12:40:11.861Z,27.26
2019-05-10T12:41:08.975Z,26.94
2019-05-10T12:42:11.306Z,26.95
2019-05-10T12:43:11.001Z,27.04
2019-05-10T12:44:11.101Z,27.09
2019-05-10T12:45:09.197Z,27.29
2019-05-10T12:46:10.530Z,27.38
2019-05-10T12:47:11.400Z,27.70
2019-05-10T12:48:09.342Z,27.88
2019-05-10T12:49:11.808Z,28.11
2019-05-10T12:50:09.444Z,28.28
2019-05-10T12:51:12.602Z,28.36
2019-05-10T12:52:14.158Z,28.51
2019-05-10T12:53:15.295Z,28.60
2019-05-10T12:54:11.290Z,28.41